Time;durP1;ratioP1;P1;durP2;ratioP2;P2;SDS_P1;SDS_P2;PMS_P1;PMS_P2;Temp;Humidity;BMP_temperature;BMP_pressure;BME280_temperature;BME280_humidity;BME280_pressure;Samples;Min_cycle;Max_cycle;Signal;HPM_P1;HPM_P2
2021/04/16 00:00:58;;;;;;;3.42;1.80;;;7.20;70.00;;;;;;4995087;28;20024;-84
2021/04/16 00:03:26;;;;;;;4.20;1.80;;;7.10;69.70;;;;;;4993192;28;20436;-83
2021/04/16 00:05:51;;;;;;;2.97;1.70;;;7.10;69.50;;;;;;4981920;28;20041;-84
2021/04/16 00:08:40;;;;;;;2.65;1.48;;;7.10;70.60;;;;;;4973829;28;20043;-84
2021/04/16 00:11:15;;;;;;;3.42;1.65;;;7.10;70.40;;;;;;4974725;28;20030;-84
2021/04/16 00:13:56;;;;;;;2.83;1.58;;;7.00;69.90;;;;;;4981015;28;20475;-84
2021/04/16 00:16:26;;;;;;;4.10;1.80;;;7.00;71.10;;;;;;4992731;28;20058;-84
2021/04/16 00:18:52;;;;;;;3.25;1.60;;;7.00;71.60;;;;;;4986524;28;20023;-84
2021/04/16 00:21:18;;;;;;;3.08;1.70;;;6.90;71.00;;;;;;4969837;28;20033;-83
2021/04/16 00:23:45;;;;;;;3.15;1.70;;;6.90;71.10;;;;;;4981717;28;20052;-83
2021/04/16 00:26:12;;;;;;;3.90;2.22;;;6.80;71.20;;;;;;5012523;28;20080;-83
2021/04/16 00:28:39;;;;;;;2.95;1.80;;;6.80;71.30;;;;;;5012006;28;20017;-84
2021/04/16 00:31:17;;;;;;;3.55;2.03;;;6.80;71.40;;;;;;4987003;28;20042;-84
2021/04/16 00:33:42;;;;;;;3.60;1.83;;;6.80;72.00;;;;;;4992240;28;20518;-84
2021/04/16 00:36:09;;;;;;;2.45;1.60;;;6.70;72.20;;;;;;4957938;28;20035;-84
2021/04/16 00:38:36;;;;;;;3.05;1.88;;;6.70;72.40;;;;;;4969950;28;20027;-84
2021/04/16 00:41:05;;;;;;;4.68;1.90;;;6.70;72.90;;;;;;4976257;28;20455;-84
2021/04/16 00:43:32;;;;;;;3.00;1.80;;;6.70;73.10;;;;;;4993598;28;20081;-84
2021/04/16 00:46:13;;;;;;;4.53;1.90;;;6.60;73.20;;;;;;4992372;28;20042;-84
2021/04/16 00:48:50;;;;;;;3.67;1.70;;;6.60;73.40;;;;;;5008299;28;20441;-83
2021/04/16 00:51:33;;;;;;;4.85;1.90;;;6.60;73.40;;;;;;4992179;28;20080;-83
2021/04/16 00:54:01;;;;;;;5.07;2.08;;;6.50;73.20;;;;;;4992256;28;20117;-84
2021/04/16 00:56:28;;;;;;;4.00;1.73;;;6.50;73.30;;;;;;4991801;28;20014;-84
2021/04/16 00:58:54;;;;;;;4.13;1.92;;;6.50;73.80;;;;;;4984033;28;20030;-84
2021/04/16 01:01:21;;;;;;;2.92;1.70;;;6.40;74.00;;;;;;4969988;28;20121;-84
2021/04/16 01:03:46;;;;;;;3.65;1.60;;;6.40;74.30;;;;;;4992103;28;20391;-84
2021/04/16 01:06:13;;;;;;;3.28;1.58;;;6.40;74.10;;;;;;4972453;28;20019;-83
2021/04/16 01:08:38;;;;;;;4.03;1.90;;;6.40;74.90;;;;;;4983034;28;20031;-84
2021/04/16 01:11:08;;;;;;;3.13;1.73;;;6.30;74.40;;;;;;4993201;28;20027;-84
2021/04/16 01:13:36;;;;;;;4.35;1.65;;;6.30;74.40;;;;;;4975621;28;20034;-84
2021/04/16 01:16:04;;;;;;;3.58;1.90;;;6.30;74.50;;;;;;4991674;28;20460;-84
2021/04/16 01:18:34;;;;;;;3.13;1.40;;;6.30;74.70;;;;;;4992933;28;20027;-84
2021/04/16 01:21:04;;;;;;;4.05;1.95;;;6.30;74.50;;;;;;4991552;28;20022;-84
2021/04/16 01:23:45;;;;;;;4.63;2.10;;;6.30;74.90;;;;;;4991618;28;20029;-83
2021/04/16 01:26:14;;;;;;;4.55;1.90;;;6.20;74.60;;;;;;4991817;28;20027;-84
2021/04/16 01:28:40;;;;;;;4.43;1.77;;;6.20;74.90;;;;;;4991607;28;20514;-84
2021/04/16 01:31:15;;;;;;;3.22;2.05;;;6.20;75.30;;;;;;4975370;28;20030;-83
2021/04/16 01:33:41;;;;;;;4.40;2.15;;;6.20;75.10;;;;;;4991436;28;20049;-84
2021/04/16 01:36:13;;;;;;;4.20;2.08;;;6.10;75.60;;;;;;4975351;28;20068;-84
2021/04/16 01:38:41;;;;;;;3.35;1.70;;;6.10;75.70;;;;;;4991498;28;20029;-84
2021/04/16 01:41:08;;;;;;;4.45;1.77;;;6.10;76.10;;;;;;4991405;28;20467;-84
2021/04/16 01:43:43;;;;;;;3.75;1.88;;;6.10;76.20;;;;;;4992752;28;20019;-84
2021/04/16 01:46:18;;;;;;;3.88;2.25;;;6.10;76.30;;;;;;4991303;28;20432;-84
2021/04/16 01:48:45;;;;;;;3.40;1.90;;;6.00;76.40;;;;;;4973948;28;20553;-84
2021/04/16 01:51:16;;;;;;;5.35;1.90;;;6.00;76.90;;;;;;4983010;28;20442;-84
2021/04/16 01:53:42;;;;;;;4.75;2.03;;;6.00;77.00;;;;;;5001602;28;20018;-84
2021/04/16 01:56:08;;;;;;;3.33;1.80;;;6.00;77.20;;;;;;5010977;28;20502;-83
2021/04/16 01:58:53;;;;;;;3.33;1.98;;;6.00;77.00;;;;;;5002545;28;20035;-83
2021/04/16 02:01:18;;;;;;;3.75;1.95;;;5.90;77.20;;;;;;5009701;28;20029;-84
2021/04/16 02:03:44;;;;;;;3.97;1.98;;;5.90;77.50;;;;;;4981543;28;20147;-83
2021/04/16 02:06:09;;;;;;;3.67;1.90;;;5.90;77.70;;;;;;4976591;28;20031;-84
2021/04/16 02:08:35;;;;;;;3.88;1.88;;;5.90;77.70;;;;;;4983291;28;20415;-84
2021/04/16 02:11:01;;;;;;;4.75;2.22;;;5.90;78.00;;;;;;4963219;28;20034;-84
2021/04/16 02:13:26;;;;;;;3.75;1.95;;;5.80;78.40;;;;;;4988902;28;20490;-84
2021/04/16 02:15:52;;;;;;;2.97;1.80;;;5.80;78.60;;;;;;4984146;28;20038;-83
2021/04/16 02:18:18;;;;;;;5.68;2.13;;;5.80;78.60;;;;;;5014856;28;20403;-83
2021/04/16 02:20:43;;;;;;;3.40;2.00;;;5.80;79.10;;;;;;5014630;28;20021;-83
2021/04/16 02:23:12;;;;;;;4.15;2.20;;;5.80;79.40;;;;;;4996928;28;20436;-83
2021/04/16 02:25:38;;;;;;;4.72;1.95;;;5.70;79.40;;;;;;4972480;28;20038;-83
2021/04/16 02:28:04;;;;;;;3.90;2.05;;;5.70;79.70;;;;;;5014414;28;20114;-83
2021/04/16 02:30:35;;;;;;;5.47;2.20;;;5.70;79.90;;;;;;4989007;28;20050;-83
2021/04/16 02:33:01;;;;;;;5.25;2.25;;;5.70;80.00;;;;;;5014076;28;20033;-84
2021/04/16 02:35:27;;;;;;;4.72;2.13;;;5.70;80.20;;;;;;4973590;28;20038;-83
2021/04/16 02:38:18;;;;;;;4.07;2.10;;;5.70;80.50;;;;;;4971691;28;20450;-83
2021/04/16 02:40:44;;;;;;;5.20;2.33;;;5.60;80.80;;;;;;5004438;28;20018;-83
2021/04/16 02:43:10;;;;;;;4.00;2.15;;;5.60;81.10;;;;;;5000334;28;20113;-83
2021/04/16 02:45:36;;;;;;;4.63;2.10;;;5.60;81.40;;;;;;5001116;28;20030;-83
2021/04/16 02:48:02;;;;;;;4.45;1.90;;;5.60;81.20;;;;;;4964773;28;20026;-83
2021/04/16 02:50:30;;;;;;;4.03;2.22;;;5.50;81.40;;;;;;4964070;28;20021;-83
2021/04/16 02:52:57;;;;;;;3.65;1.85;;;5.60;81.80;;;;;;4989635;28;20459;-83
2021/04/16 02:55:22;;;;;;;4.60;1.85;;;5.50;81.60;;;;;;4994948;28;20383;-83
2021/04/16 02:57:48;;;;;;;4.82;2.13;;;5.50;82.00;;;;;;4990558;28;20026;-83
2021/04/16 03:00:22;;;;;;;4.68;2.25;;;5.50;82.40;;;;;;4955311;28;20050;-83
2021/04/16 03:02:48;;;;;;;6.95;2.35;;;5.50;82.40;;;;;;4997426;28;20172;-83
2021/04/16 03:05:14;;;;;;;5.00;2.33;;;5.50;82.50;;;;;;4977727;28;20113;-83
2021/04/16 03:07:40;;;;;;;6.28;2.05;;;5.50;82.50;;;;;;4977963;28;20022;-84
2021/04/16 03:10:07;;;;;;;4.13;2.10;;;5.50;82.60;;;;;;4974966;28;20030;-83
2021/04/16 03:12:33;;;;;;;7.57;2.33;;;5.40;82.40;;;;;;4977758;28;20097;-83
2021/04/16 03:14:59;;;;;;;4.95;2.40;;;5.40;82.70;;;;;;5006712;28;20286;-83
2021/04/16 03:17:25;;;;;;;4.32;2.50;;;5.40;82.80;;;;;;4997192;28;20589;-83
2021/04/16 03:19:51;;;;;;;4.60;1.92;;;5.40;83.10;;;;;;4977142;28;20391;-83
2021/04/16 03:22:16;;;;;;;3.95;2.17;;;5.40;83.80;;;;;;4990492;28;20037;-83
2021/04/16 03:24:42;;;;;;;5.28;2.00;;;5.40;83.00;;;;;;4968797;28;20018;-83
2021/04/16 03:27:08;;;;;;;5.05;2.05;;;5.30;82.80;;;;;;4981030;28;20045;-83
2021/04/16 03:29:34;;;;;;;5.75;1.88;;;5.30;82.90;;;;;;4963041;28;20353;-83
2021/04/16 03:31:59;;;;;;;6.70;2.53;;;5.30;83.40;;;;;;4988118;28;20030;-83
2021/04/16 03:34:25;;;;;;;6.95;2.40;;;5.30;83.50;;;;;;4996093;28;20515;-83
2021/04/16 03:36:51;;;;;;;5.75;3.10;;;5.30;83.70;;;;;;4961287;28;20371;-83
2021/04/16 03:39:17;;;;;;;7.32;2.40;;;5.30;84.40;;;;;;4989232;28;20026;-83
2021/04/16 03:41:43;;;;;;;4.07;2.13;;;5.30;83.80;;;;;;4961502;28;20126;-82
2021/04/16 03:44:08;;;;;;;4.13;2.47;;;5.20;84.20;;;;;;5007363;28;20109;-82
2021/04/16 03:46:34;;;;;;;5.15;2.50;;;5.20;84.30;;;;;;5025190;28;20031;-82
2021/04/16 03:49:00;;;;;;;8.55;2.38;;;5.20;84.60;;;;;;4976933;28;20041;-83
2021/04/16 03:51:26;;;;;;;5.40;2.60;;;5.20;84.70;;;;;;5004297;28;20041;-83
2021/04/16 03:53:51;;;;;;;4.38;2.30;;;5.20;84.70;;;;;;4969662;28;20026;-82
2021/04/16 03:56:18;;;;;;;4.95;2.25;;;5.20;84.90;;;;;;4996522;28;20034;-82
2021/04/16 03:58:45;;;;;;;6.80;2.47;;;5.10;84.70;;;;;;4989726;28;20480;-83
2021/04/16 04:01:11;;;;;;;5.13;2.08;;;5.10;85.00;;;;;;4973865;28;20096;-83
2021/04/16 04:03:40;;;;;;;5.00;2.53;;;5.10;85.90;;;;;;4979973;28;20353;-83
2021/04/16 04:06:07;;;;;;;6.82;2.33;;;5.10;85.30;;;;;;4963900;28;20038;-83
2021/04/16 04:08:34;;;;;;;5.85;3.05;;;5.10;85.60;;;;;;4977344;28;20761;-83
2021/04/16 04:10:59;;;;;;;5.82;2.88;;;5.10;85.60;;;;;;4985216;28;20033;-83
2021/04/16 04:13:25;;;;;;;6.72;3.17;;;5.00;85.60;;;;;;4981554;28;20023;-83
2021/04/16 04:15:51;;;;;;;4.72;2.50;;;5.00;85.70;;;;;;4948020;28;20546;-83
2021/04/16 04:18:17;;;;;;;5.45;2.30;;;5.00;85.70;;;;;;4995946;28;20126;-83
2021/04/16 04:20:46;;;;;;;5.93;2.65;;;5.00;86.60;;;;;;4976620;28;20022;-83
2021/04/16 04:23:12;;;;;;;5.85;2.47;;;5.00;86.20;;;;;;4988204;28;20026;-83
2021/04/16 04:25:37;;;;;;;5.78;2.47;;;5.00;86.20;;;;;;4966756;28;20491;-83
2021/04/16 04:28:05;;;;;;;5.32;2.50;;;5.00;86.30;;;;;;4980349;28;20455;-81
2021/04/16 04:30:33;;;;;;;6.25;2.83;;;4.90;86.30;;;;;;4976562;28;20037;-82
2021/04/16 04:33:03;;;;;;;5.75;2.60;;;4.90;86.40;;;;;;4983894;28;20150;-82
2021/04/16 04:35:29;;;;;;;10.18;3.38;;;4.90;86.60;;;;;;4981709;28;20085;-82
2021/04/16 04:37:55;;;;;;;5.50;2.53;;;4.90;87.00;;;;;;4982775;28;20022;-83
2021/04/16 04:40:23;;;;;;;4.70;2.22;;;4.90;87.00;;;;;;4960453;28;20026;-82
2021/04/16 04:42:48;;;;;;;4.13;2.17;;;4.90;87.20;;;;;;4995865;28;20034;-83
2021/04/16 04:45:15;;;;;;;4.32;2.25;;;4.90;87.10;;;;;;4979962;28;20030;-83
2021/04/16 04:47:40;;;;;;;6.28;2.75;;;4.90;87.20;;;;;;4979641;28;20068;-83
2021/04/16 04:50:08;;;;;;;7.35;2.95;;;4.90;87.30;;;;;;4971307;28;20061;-83
2021/04/16 04:52:36;;;;;;;5.60;2.90;;;4.90;87.50;;;;;;4977364;28;20037;-82
2021/04/16 04:55:09;;;;;;;6.03;3.00;;;4.90;87.60;;;;;;4995816;28;20529;-82
2021/04/16 04:57:34;;;;;;;7.88;2.70;;;4.90;87.80;;;;;;4995535;28;20026;-82
2021/04/16 05:00:09;;;;;;;4.68;2.50;;;4.90;87.90;;;;;;4976198;28;20045;-82
2021/04/16 05:02:35;;;;;;;5.15;2.60;;;4.90;88.60;;;;;;4973188;28;20026;-83
2021/04/16 05:05:00;;;;;;;4.97;2.85;;;4.90;88.60;;;;;;4977928;28;20026;-83
2021/04/16 05:07:26;;;;;;;6.55;2.95;;;4.90;88.20;;;;;;4995566;28;20053;-83
2021/04/16 05:09:52;;;;;;;5.75;2.65;;;4.90;88.30;;;;;;4995502;28;20041;-83
2021/04/16 05:12:18;;;;;;;5.35;2.35;;;4.90;88.40;;;;;;5004828;28;20029;-84
2021/04/16 05:14:44;;;;;;;5.45;2.70;;;4.90;88.30;;;;;;5003626;28;20108;-84
2021/04/16 05:17:09;;;;;;;8.57;3.10;;;4.90;88.20;;;;;;5004747;28;20121;-82
2021/04/16 05:19:35;;;;;;;5.05;2.90;;;4.90;88.30;;;;;;4990474;28;20030;-83
2021/04/16 05:22:04;;;;;;;5.85;2.83;;;4.90;88.60;;;;;;4990991;28;20033;-81
2021/04/16 05:24:33;;;;;;;5.03;2.75;;;4.80;88.80;;;;;;4988565;28;20391;-82
2021/04/16 05:27:00;;;;;;;8.85;3.17;;;4.80;88.80;;;;;;4994721;28;20038;-82
2021/04/16 05:29:26;;;;;;;5.45;2.95;;;4.80;88.90;;;;;;4980813;28;20399;-81
2021/04/16 05:31:52;;;;;;;17.42;4.38;;;4.80;89.20;;;;;;4986591;28;20112;-82
2021/04/16 05:34:17;;;;;;;6.53;2.53;;;4.80;89.10;;;;;;5006471;23;20050;-90
2021/04/16 05:36:43;;;;;;;5.82;2.90;;;4.80;89.20;;;;;;4979981;28;20113;-90
2021/04/16 05:39:08;;;;;;;6.35;3.00;;;4.90;89.30;;;;;;4964534;28;20471;-89
2021/04/16 05:41:34;;;;;;;5.63;3.10;;;4.80;89.40;;;;;;4980432;28;20029;-90
2021/04/16 05:44:00;;;;;;;5.13;2.63;;;4.90;89.50;;;;;;4979909;28;20030;-90
2021/04/16 05:46:25;;;;;;;7.55;2.70;;;4.90;89.60;;;;;;4979418;28;20034;-90
2021/04/16 05:48:51;;;;;;;5.95;2.97;;;4.90;89.60;;;;;;4985252;28;20160;-90
2021/04/16 05:51:16;;;;;;;5.85;2.67;;;4.90;89.50;;;;;;4996588;28;20079;-91
2021/04/16 05:53:42;;;;;;;5.65;2.75;;;5.00;89.60;;;;;;4974266;28;20030;-90
2021/04/16 05:56:08;;;;;;;6.10;3.20;;;4.90;89.60;;;;;;4973926;28;20546;-89
2021/04/16 05:58:34;;;;;;;5.72;2.47;;;5.00;89.70;;;;;;5010698;28;20444;-91
2021/04/16 06:00:59;;;;;;;6.28;2.70;;;5.00;89.60;;;;;;4997361;28;20038;-89
2021/04/16 06:03:25;;;;;;;8.25;3.45;;;5.00;89.60;;;;;;4964070;28;20030;-88
2021/04/16 06:05:51;;;;;;;7.03;3.28;;;5.00;89.50;;;;;;5009394;28;20042;-86
2021/04/16 06:08:19;;;;;;;6.55;3.05;;;5.00;89.60;;;;;;4968944;28;20026;-89
2021/04/16 06:10:45;;;;;;;7.65;2.88;;;5.10;89.40;;;;;;4971099;28;20561;-88
2021/04/16 06:13:11;;;;;;;4.78;2.53;;;5.10;89.60;;;;;;5010616;28;20033;-88
2021/04/16 06:15:36;;;;;;;6.82;2.95;;;5.10;89.20;;;;;;4988237;28;20470;-87
2021/04/16 06:18:02;;;;;;;6.03;2.33;;;5.10;89.30;;;;;;4973834;28;20042;-89
2021/04/16 06:20:28;;;;;;;4.55;2.55;;;5.10;89.40;;;;;;4993235;28;20041;-88
2021/04/16 06:22:55;;;;;;;4.53;2.60;;;5.10;89.40;;;;;;4979867;28;20505;-88
2021/04/16 06:25:24;;;;;;;6.15;2.38;;;5.10;89.40;;;;;;4995331;28;20022;-88
2021/04/16 06:27:50;;;;;;;4.07;2.28;;;5.10;89.20;;;;;;5013373;28;20033;-88
2021/04/16 06:30:18;;;;;;;3.58;2.30;;;5.20;89.10;;;;;;4999375;28;20223;-89
2021/04/16 06:32:45;;;;;;;5.25;2.67;;;5.20;88.90;;;;;;5014022;28;20041;-90
2021/04/16 06:35:15;;;;;;;6.32;2.67;;;5.20;88.80;;;;;;4996157;28;20046;-89
2021/04/16 06:37:41;;;;;;;4.35;2.58;;;5.20;88.70;;;;;;4991265;28;20456;-90
2021/04/16 06:40:07;;;;;;;4.18;2.30;;;5.30;88.60;;;;;;4979199;28;20092;-95
2021/04/16 06:42:34;;;;;;;4.72;2.70;;;5.30;88.50;;;;;;4967544;28;20125;-92
2021/04/16 06:45:04;;;;;;;5.70;2.95;;;5.30;88.40;;;;;;4979709;28;20033;-91
2021/04/16 06:47:36;;;;;;;5.93;2.42;;;5.40;88.30;;;;;;5000729;28;20077;-91
2021/04/16 06:50:04;;;;;;;5.07;2.28;;;5.40;88.20;;;;;;4994765;28;20026;-90
2021/04/16 06:52:35;;;;;;;4.40;2.22;;;5.50;88.20;;;;;;5013018;28;20088;-91
2021/04/16 06:55:26;;;;;;;5.32;2.40;;;5.50;88.20;;;;;;4996469;28;20530;-90
2021/04/16 06:57:59;;;;;;;4.32;2.10;;;5.60;88.20;;;;;;4994918;28;20030;-90
2021/04/16 07:00:37;;;;;;;5.18;2.42;;;5.70;88.30;;;;;;4989674;28;20029;-88
2021/04/16 07:03:28;;;;;;;5.90;2.65;;;5.70;88.20;;;;;;4998610;28;20022;-90
2021/04/16 07:06:01;;;;;;;4.07;2.15;;;5.90;88.20;;;;;;5013879;28;20053;-89
2021/04/16 07:08:51;;;;;;;4.38;2.40;;;6.00;88.20;;;;;;4969121;28;20026;-90
2021/04/16 07:11:24;;;;;;;6.03;2.27;;;6.10;88.20;;;;;;5012405;28;20076;-90
2021/04/16 07:13:50;;;;;;;3.85;1.90;;;6.20;88.00;;;;;;4998702;28;20032;-89
2021/04/16 07:16:17;;;;;;;5.28;2.20;;;6.30;87.80;;;;;;4980827;28;20031;-89
2021/04/16 07:18:45;;;;;;;4.70;2.40;;;6.40;87.60;;;;;;5016856;28;20041;-89
2021/04/16 07:21:15;;;;;;;7.40;2.75;;;6.50;87.30;;;;;;4971587;28;20030;-95
2021/04/16 07:23:51;;;;;;;5.87;2.23;;;6.60;87.00;;;;;;4999797;28;20029;-90
2021/04/16 07:26:26;;;;;;;4.05;2.20;;;6.70;86.80;;;;;;4999396;28;20117;-89
2021/04/16 07:28:54;;;;;;;5.53;2.38;;;6.70;86.60;;;;;;4998429;28;20033;-89
2021/04/16 07:31:27;;;;;;;5.05;2.40;;;6.80;86.50;;;;;;4982532;28;20109;-89
2021/04/16 07:33:53;;;;;;;5.03;2.28;;;6.80;86.50;;;;;;4998500;28;20057;-89
2021/04/16 07:36:25;;;;;;;5.18;2.55;;;7.00;86.40;;;;;;5011187;28;20054;-90
2021/04/16 07:39:13;;;;;;;4.93;2.53;;;7.00;86.20;;;;;;4994984;28;20042;-88
2021/04/16 07:42:12;;;;;;;4.93;2.38;;;7.10;85.90;;;;;;4988622;28;20030;-90
2021/04/16 07:44:55;;;;;;;5.13;2.13;;;7.20;85.70;;;;;;4986419;28;20073;-89
2021/04/16 07:47:30;;;;;;;6.15;2.20;;;7.30;85.50;;;;;;4994539;28;20033;-88
2021/04/16 07:49:59;;;;;;;4.82;2.60;;;7.40;85.20;;;;;;4994580;28;20036;-89
2021/04/16 07:52:46;;;;;;;3.30;2.00;;;7.40;84.90;;;;;;4995020;28;20022;-90
2021/04/16 07:55:40;;;;;;;3.58;1.92;;;7.50;84.60;;;;;;4995037;28;20026;-89
2021/04/16 07:58:14;;;;;;;5.22;2.38;;;7.60;84.20;;;;;;4991210;28;20035;-89
2021/04/16 08:00:45;;;;;;;4.07;1.80;;;7.70;83.90;;;;;;4994705;28;20109;-89
2021/04/16 08:03:12;;;;;;;5.45;2.85;;;7.80;83.70;;;;;;5000934;28;20074;-90
2021/04/16 08:05:40;;;;;;;4.15;2.42;;;7.90;83.70;;;;;;5010761;28;20109;-90
2021/04/16 08:08:18;;;;;;;4.82;2.42;;;8.00;83.40;;;;;;4993480;28;20044;-89
2021/04/16 08:10:46;;;;;;;3.90;2.22;;;8.10;83.40;;;;;;4995450;28;20027;-89
2021/04/16 08:13:24;;;;;;;4.57;2.40;;;8.30;83.40;;;;;;4994441;28;20046;-89
2021/04/16 08:15:51;;;;;;;4.18;1.98;;;8.40;82.40;;;;;;4994165;28;20145;-90
2021/04/16 08:18:31;;;;;;;4.53;1.85;;;8.50;82.40;;;;;;4994351;28;20066;-90
2021/04/16 08:20:59;;;;;;;3.80;2.10;;;8.60;82.10;;;;;;4995419;28;20493;-90
2021/04/16 08:23:30;;;;;;;10.45;2.40;;;8.70;81.20;;;;;;4994385;28;20034;-90
2021/04/16 08:25:57;;;;;;;;;;;8.90;81.10;;;;;;4995102;28;20475;-90
2021/04/16 08:28:44;;;;;;;3.47;1.83;;;9.00;80.70;;;;;;4978816;28;20333;-91
2021/04/16 08:31:16;;;;;;;2.53;1.67;;;9.10;80.20;;;;;;4996236;28;20097;-91
2021/04/16 08:34:10;;;;;;;2.55;1.52;;;9.20;80.10;;;;;;4996747;28;20513;-90
2021/04/16 08:36:39;;;;;;;2.47;1.58;;;9.30;79.70;;;;;;4995792;28;20043;-91
2021/04/16 08:39:42;;;;;;;3.08;1.80;;;9.50;78.70;;;;;;4987087;28;20030;-91
2021/04/16 08:42:24;;;;;;;5.63;1.90;;;9.60;78.00;;;;;;4977060;28;20022;-91
2021/04/16 08:45:00;;;;;;;4.65;2.20;;;9.70;75.80;;;;;;4992237;28;20038;-90
2021/04/16 08:47:41;;;;;;;2.83;1.88;;;9.80;75.70;;;;;;4993139;28;20026;-91
2021/04/16 08:50:09;;;;;;;2.80;1.30;;;10.00;75.30;;;;;;4993685;28;20125;-90
2021/04/16 08:52:48;;;;;;;2.53;1.10;;;10.10;74.90;;;;;;4993469;28;20022;-88
2021/04/16 08:55:39;;;;;;;2.75;1.20;;;10.20;74.50;;;;;;4993143;28;20049;-88
2021/04/16 08:58:18;;;;;;;2.33;1.25;;;10.30;73.00;;;;;;4993527;28;20502;-89
2021/04/16 09:00:52;;;;;;;2.88;1.30;;;10.40;72.40;;;;;;4994300;28;20022;-90
2021/04/16 09:03:43;;;;;;;2.38;1.20;;;10.50;70.60;;;;;;4992841;28;20034;-89
2021/04/16 09:06:43;;;;;;;2.30;1.38;;;10.70;69.80;;;;;;4992994;28;20032;-89
2021/04/16 09:09:13;;;;;;;1.98;1.00;;;10.80;70.60;;;;;;4993497;28;20105;-89
2021/04/16 09:11:41;;;;;;;3.05;1.20;;;10.90;70.40;;;;;;4993802;28;20030;-89
2021/04/16 09:14:33;;;;;;;2.03;1.00;;;11.10;69.10;;;;;;4993580;28;20383;-90
2021/04/16 09:17:01;;;;;;;2.22;1.55;;;11.20;69.50;;;;;;4985133;28;20517;-89
2021/04/16 09:19:27;;;;;;;1.83;1.00;;;11.40;69.40;;;;;;4994983;28;20029;-90
2021/04/16 09:22:05;;;;;;;2.20;1.27;;;11.50;68.80;;;;;;4993626;28;20030;-89
2021/04/16 09:24:50;;;;;;;1.90;1.00;;;11.60;67.90;;;;;;4992924;28;20072;-88
2021/04/16 09:27:39;;;;;;;1.70;1.10;;;11.70;64.30;;;;;;5010515;28;20172;-89
2021/04/16 09:30:08;;;;;;;2.83;1.38;;;11.80;65.00;;;;;;4993475;28;20029;-90
2021/04/16 09:32:34;;;;;;;3.20;1.50;;;11.90;65.30;;;;;;4999037;28;20077;-90
2021/04/16 09:35:37;;;;;;;2.55;1.30;;;12.00;63.60;;;;;;4998637;28;20069;-90
2021/04/16 09:38:40;;;;;;;1.13;0.90;;;12.10;64.60;;;;;;4996204;28;20038;-86
2021/04/16 09:41:25;;;;;;;2.08;1.00;;;12.20;64.60;;;;;;4995980;28;20053;-90
2021/04/16 09:43:57;;;;;;;2.95;1.27;;;12.30;63.10;;;;;;4993001;28;20037;-90
2021/04/16 09:46:31;;;;;;;3.63;1.20;;;12.40;61.90;;;;;;4996238;28;20502;-90
2021/04/16 09:49:07;;;;;;;2.95;1.27;;;12.50;61.50;;;;;;5009928;28;20026;-90
2021/04/16 09:51:39;;;;;;;3.15;1.30;;;12.60;61.40;;;;;;5012485;28;20113;-89
2021/04/16 09:54:08;;;;;;;1.83;0.98;;;12.70;60.40;;;;;;5010620;28;20513;-90
2021/04/16 09:56:38;;;;;;;1.88;0.90;;;12.80;60.70;;;;;;4999891;28;20042;-90
2021/04/16 09:59:27;;;;;;;1.35;0.90;;;12.90;58.70;;;;;;4995959;28;20036;-91
2021/04/16 10:02:11;;;;;;;1.60;0.93;;;13.00;59.80;;;;;;5002820;28;20030;-90
2021/04/16 10:04:51;;;;;;;1.63;0.90;;;13.20;59.70;;;;;;4993584;28;20030;-88
2021/04/16 10:07:20;;;;;;;3.35;1.30;;;13.30;58.30;;;;;;4995117;28;20056;-90
2021/04/16 10:09:46;;;;;;;1.92;1.00;;;13.30;57.50;;;;;;5011882;28;20026;-92
2021/04/16 10:12:27;;;;;;;2.78;1.00;;;13.40;56.70;;;;;;4991262;28;20042;-91
2021/04/16 10:14:53;;;;;;;2.72;1.10;;;13.50;56.80;;;;;;4993445;28;20449;-90
2021/04/16 10:17:21;;;;;;;2.60;1.20;;;13.60;56.40;;;;;;4996094;28;20122;-90
2021/04/16 10:19:50;;;;;;;3.88;1.10;;;13.70;56.80;;;;;;5011813;28;20042;-88
2021/04/16 10:22:31;;;;;;;3.28;1.20;;;13.70;56.60;;;;;;5012586;28;20029;-91
2021/04/16 10:34:49;;;;;;;3.15;1.15;;;14.10;55.30;;;;;;5016085;28;20121;-89
2021/04/16 11:11:02;;;;;;;2.28;1.40;;;14.90;50.30;;;;;;4973042;28;20062;-85
2021/04/16 12:41:00;;;;;;;1.65;0.90;;;17.60;41.40;;;;;;4984620;28;20038;-82
2021/04/16 12:43:27;;;;;;;1.40;0.90;;;17.70;41.20;;;;;;4988947;28;20081;-83
2021/04/16 12:45:55;;;;;;;1.05;0.90;;;17.80;40.00;;;;;;4988873;28;20057;-82
2021/04/16 12:48:24;;;;;;;1.73;1.27;;;17.90;39.50;;;;;;4990729;28;20126;-84
2021/04/16 12:50:51;;;;;;;1.83;0.90;;;17.90;39.20;;;;;;4991769;28;20022;-85
2021/04/16 12:53:17;;;;;;;1.85;0.90;;;18.00;39.40;;;;;;4974598;28;20026;-90
2021/04/16 12:55:43;;;;;;;1.70;0.98;;;18.10;40.20;;;;;;4990404;28;20026;-84
2021/04/16 12:58:16;;;;;;;2.30;1.00;;;18.20;39.20;;;;;;4990374;28;20045;-84
2021/04/16 13:00:44;;;;;;;2.83;0.95;;;18.30;38.60;;;;;;4991775;28;20026;-84
2021/04/16 13:03:16;;;;;;;1.70;0.90;;;18.30;37.70;;;;;;4989554;28;20360;-85
2021/04/16 13:05:43;;;;;;;1.88;1.02;;;18.40;38.80;;;;;;4989109;28;20387;-84
2021/04/16 13:08:09;;;;;;;1.63;1.00;;;18.50;38.90;;;;;;4989011;28;20113;-84
2021/04/16 13:10:35;;;;;;;1.95;1.10;;;18.60;36.80;;;;;;4991698;28;20026;-85
2021/04/16 13:13:01;;;;;;;1.35;1.00;;;18.70;36.80;;;;;;4974071;28;20034;-84
2021/04/16 13:15:27;;;;;;;1.45;0.95;;;18.80;39.90;;;;;;4992327;28;20029;-84
2021/04/16 13:17:59;;;;;;;2.40;1.00;;;18.90;35.80;;;;;;4976920;28;20383;-83
2021/04/16 13:20:27;;;;;;;2.53;1.10;;;19.00;39.20;;;;;;4987733;28;20475;-84
2021/04/16 13:22:53;;;;;;;2.20;1.10;;;19.10;37.60;;;;;;4991324;28;20030;-92
2021/04/16 13:25:27;;;;;;;1.45;1.00;;;19.10;35.70;;;;;;4968284;28;20054;-83
2021/04/16 13:27:52;;;;;;;2.22;1.23;;;19.20;37.80;;;;;;4982548;28;20034;-83
2021/04/16 13:30:22;;;;;;;2.17;1.00;;;19.30;38.20;;;;;;4983764;28;20497;-84
2021/04/16 13:32:51;;;;;;;2.42;0.90;;;19.50;36.90;;;;;;4980705;28;20033;-83
2021/04/16 13:35:28;;;;;;;1.55;0.90;;;19.60;35.40;;;;;;4992700;28;20054;-85
2021/04/16 13:37:54;;;;;;;2.17;1.10;;;19.70;37.20;;;;;;5007204;28;20075;-85
2021/04/16 13:40:21;;;;;;;3.05;1.40;;;19.80;38.30;;;;;;5011305;28;20025;-84
2021/04/16 13:42:46;;;;;;;2.85;1.10;;;19.80;36.20;;;;;;4985334;28;20030;-84
2021/04/16 13:45:12;;;;;;;2.22;1.10;;;19.90;37.10;;;;;;5011082;28;20529;-84
2021/04/16 13:47:42;;;;;;;2.88;1.40;;;20.00;36.00;;;;;;4993933;28;20056;-83
2021/04/16 13:50:09;;;;;;;2.15;1.40;;;20.10;36.10;;;;;;4993520;28;20498;-84
2021/04/16 13:52:35;;;;;;;1.35;1.10;;;20.00;35.60;;;;;;5015237;28;20034;-84
2021/04/16 13:55:01;;;;;;;2.92;1.40;;;19.80;38.20;;;;;;4990648;28;20025;-83
2021/04/16 13:57:26;;;;;;;2.25;1.17;;;19.90;37.60;;;;;;4988390;28;20390;-83
2021/04/16 13:59:52;;;;;;;4.40;1.40;;;19.90;39.20;;;;;;4992786;28;20425;-85
2021/04/16 14:02:24;;;;;;;3.10;1.60;;;20.00;38.00;;;;;;4966692;28;20228;-83
2021/04/16 14:04:51;;;;;;;3.55;1.17;;;20.00;36.50;;;;;;5004207;28;20100;-84
2021/04/16 14:07:18;;;;;;;4.28;1.40;;;20.10;38.70;;;;;;5008639;28;20029;-83
2021/04/16 14:09:44;;;;;;;3.13;1.50;;;20.20;38.00;;;;;;5014682;28;20010;-83
2021/04/16 14:12:12;;;;;;;3.30;1.48;;;20.10;36.20;;;;;;5015027;28;20049;-84
2021/04/16 14:14:38;;;;;;;2.80;1.60;;;20.00;37.60;;;;;;5006905;28;20026;-83
2021/04/16 14:17:07;;;;;;;4.13;1.52;;;20.00;38.30;;;;;;4996993;28;20103;-83
2021/04/16 14:19:53;;;;;;;2.17;1.30;;;20.10;38.80;;;;;;4997298;28;20030;-83
2021/04/16 14:22:27;;;;;;;2.13;1.30;;;20.10;37.00;;;;;;4995510;28;20058;-83
2021/04/16 14:24:54;;;;;;;2.17;1.35;;;20.20;38.20;;;;;;4983849;28;20056;-84
2021/04/16 14:27:20;;;;;;;4.10;1.40;;;20.30;38.60;;;;;;5014625;28;20135;-83
2021/04/16 14:29:46;;;;;;;2.13;1.20;;;20.40;36.70;;;;;;4997109;28;20490;-84
2021/04/16 14:32:12;;;;;;;2.33;1.15;;;20.40;37.40;;;;;;4996940;28;20466;-84
2021/04/16 14:34:39;;;;;;;2.08;1.20;;;20.50;35.90;;;;;;4980452;28;20042;-84
2021/04/16 14:37:05;;;;;;;2.28;1.15;;;20.50;37.70;;;;;;5014324;28;20037;-83
2021/04/16 14:39:31;;;;;;;2.45;1.30;;;20.50;37.70;;;;;;5014164;28;20097;-83
2021/04/16 14:41:59;;;;;;;3.08;0.93;;;20.50;38.00;;;;;;4996519;28;20116;-83
2021/04/16 14:44:26;;;;;;;3.38;1.38;;;20.50;37.50;;;;;;5014298;28;20076;-83
2021/04/16 14:46:54;;;;;;;4.18;1.58;;;20.50;36.80;;;;;;4996515;28;20068;-82
2021/04/16 14:49:24;;;;;;;1.92;1.20;;;20.50;35.80;;;;;;5014103;28;20026;-83
2021/04/16 14:51:50;;;;;;;2.85;1.10;;;20.50;36.80;;;;;;5014495;28;20204;-85
2021/04/16 14:54:30;;;;;;;2.22;1.20;;;20.50;38.40;;;;;;4996582;28;20034;-83
2021/04/16 14:56:58;;;;;;;1.80;1.17;;;20.50;37.80;;;;;;4996396;28;20058;-84
2021/04/16 14:59:29;;;;;;;3.28;1.30;;;20.50;37.10;;;;;;4996432;28;20029;-84
2021/04/16 15:01:55;;;;;;;;;;;20.50;38.70;;;;;;4996633;28;20029;-84
2021/04/16 15:04:21;;;;;;;3.17;1.60;;;20.50;39.50;;;;;;5011786;28;19932;-85
2021/04/16 15:06:52;;;;;;;2.53;1.10;;;20.50;39.00;;;;;;4995810;28;20494;-83
2021/04/16 15:09:18;;;;;;;2.60;1.17;;;20.50;39.40;;;;;;5014016;28;20037;-82
2021/04/16 15:11:47;;;;;;;1.73;1.10;;;20.50;38.40;;;;;;4997059;28;20030;-90
2021/04/16 15:14:17;;;;;;;3.35;1.10;;;20.50;37.20;;;;;;4985002;28;20141;-90
2021/04/16 15:16:48;;;;;;;2.73;1.00;;;20.50;37.90;;;;;;5013452;28;20030;-95
2021/04/16 15:19:35;;;;;;;3.40;1.20;;;20.50;36.40;;;;;;4993161;28;20639;-90